Time;durP1;ratioP1;P1;durP2;ratioP2;P2;SDS_P1;SDS_P2;PMS_P1;PMS_P2;Temp;Humidity;BMP_temperature;BMP_pressure;BME280_temperature;BME280_humidity;BME280_pressure;Samples;Min_cycle;Max_cycle;Signal;HPM_P1;HPM_P2
2023/10/18 00:01:30;;;;;;;0.30;0.20;;;;;;;7.54;89.74;100040.53;4995720;28;20821;-50
2023/10/18 00:03:57;;;;;;;0.30;0.20;;;;;;;7.57;89.17;100040.47;4996309;28;20449;-49
2023/10/18 00:06:23;;;;;;;0.30;0.10;;;;;;;7.65;89.33;100042.94;4996022;28;20564;-50
2023/10/18 00:09:32;;;;;;;0.30;0.20;;;;;;;7.42;90.12;100046.94;4995852;28;20880;-50
2023/10/18 00:11:48;;;;;;;0.30;0.20;;;;;;;7.38;91.07;100042.59;4995672;28;20508;-49
2023/10/18 00:14:14;;;;;;;0.30;0.20;;;;;;;7.22;90.83;100051.72;4996156;28;20465;-50
2023/10/18 00:16:41;;;;;;;0.30;0.20;;;;;;;7.14;91.68;100040.44;4995585;28;20544;-50
2023/10/18 00:19:07;;;;;;;0.30;0.20;;;;;;;7.11;90.83;100040.47;4995864;28;20485;-50
2023/10/18 00:21:34;;;;;;;0.30;0.20;;;;;;;7.10;91.37;100036.09;4984720;28;20453;-50
2023/10/18 00:24:00;;;;;;;0.30;0.20;;;;;;;6.94;91.14;100029.34;4995828;28;20453;-50
2023/10/18 00:26:27;;;;;;;0.30;0.20;;;;;;;6.84;91.55;100037.41;4995542;28;20827;-50
2023/10/18 00:28:53;;;;;;;0.30;0.20;;;;;;;6.92;92.06;100033.78;4995776;28;20451;-50
2023/10/18 00:31:21;;;;;;;0.30;0.20;;;;;;;6.71;91.85;100033.25;4995619;28;20489;-50
2023/10/18 00:33:48;;;;;;;0.30;0.20;;;;;;;6.57;91.26;100024.69;4995658;28;20454;-50
2023/10/18 00:36:18;;;;;;;0.30;0.20;;;;;;;6.56;92.21;100030.00;4995535;28;20458;-50
2023/10/18 00:38:45;;;;;;;0.30;0.20;;;;;;;6.37;92.97;100017.09;4995614;28;20596;-50
2023/10/18 00:41:58;;;;;;;0.30;0.20;;;;;;;6.27;91.74;100018.13;4995265;28;20463;-50
2023/10/18 00:44:08;;;;;;;0.30;0.10;;;;;;;6.15;93.41;100021.81;4989699;28;20548;-50
2023/10/18 00:46:35;;;;;;;0.30;0.10;;;;;;;6.04;92.37;100022.91;4994420;28;20456;-52
2023/10/18 00:49:02;;;;;;;0.30;0.20;;;;;;;5.98;93.27;100026.50;4985941;28;20449;-50
2023/10/18 00:51:29;;;;;;;0.30;0.20;;;;;;;5.92;92.95;100016.03;4989935;28;20515;-51
2023/10/18 00:53:55;;;;;;;0.30;0.20;;;;;;;5.99;93.60;100011.53;4995062;28;20811;-50
2023/10/18 00:56:22;;;;;;;0.30;0.20;;;;;;;5.94;93.99;100007.19;4995441;28;20471;-50
2023/10/18 00:58:48;;;;;;;0.30;0.20;;;;;;;5.88;94.57;100015.16;4977768;28;20922;-49
2023/10/18 01:01:17;;;;;;;0.30;0.20;;;;;;;5.93;94.50;100007.22;4994180;28;20485;-51
2023/10/18 01:03:51;;;;;;;0.30;0.20;;;;;;;5.83;94.29;100003.81;4994996;28;20449;-50
2023/10/18 01:06:21;;;;;;;0.30;0.20;;;;;;;5.90;94.80;100002.88;4995060;28;20939;-50
2023/10/18 01:08:49;;;;;;;0.30;0.20;;;;;;;5.86;94.61;99997.59;4995224;28;20500;-50
2023/10/18 01:11:30;;;;;;;0.30;0.20;;;;;;;5.87;93.83;99991.44;4994608;28;20947;-50
2023/10/18 01:14:00;;;;;;;0.30;0.20;;;;;;;5.76;94.97;99986.34;4994963;28;20492;-50
2023/10/18 01:16:30;;;;;;;0.30;0.20;;;;;;;5.77;95.33;99980.16;4994595;28;20456;-50
2023/10/18 01:18:57;;;;;;;0.30;0.20;;;;;;;5.76;94.34;99988.09;4994685;28;20583;-50
2023/10/18 01:21:24;;;;;;;0.30;0.20;;;;;;;5.79;94.58;99981.00;4994657;28;20962;-50
2023/10/18 01:23:56;;;;;;;0.30;0.20;;;;;;;5.84;94.25;99980.94;4994835;28;20484;-50
2023/10/18 01:26:25;;;;;;;0.30;0.20;;;;;;;5.80;94.54;99977.47;4994392;28;20989;-50
2023/10/18 01:28:53;;;;;;;0.30;0.20;;;;;;;6.10;94.23;99965.63;4994680;28;20449;-50
2023/10/18 01:31:21;;;;;;;0.30;0.20;;;;;;;6.00;93.58;99960.50;4994455;28;20454;-50
2023/10/18 01:33:50;;;;;;;0.30;0.20;;;;;;;6.00;93.41;99960.50;4994718;28;20453;-50
2023/10/18 01:36:21;;;;;;;0.33;0.20;;;;;;;6.06;94.30;99953.38;4994472;28;20465;-50
2023/10/18 01:38:55;;;;;;;0.30;0.20;;;;;;;5.94;93.96;99956.22;4994717;28;20476;-50
2023/10/18 01:41:37;;;;;;;0.30;0.20;;;;;;;5.89;94.65;99960.63;4982424;28;20540;-50
2023/10/18 01:44:06;;;;;;;0.30;0.20;;;;;;;5.95;94.62;99955.31;4994115;28;20460;-50
2023/10/18 01:46:34;;;;;;;0.80;0.80;;;;;;;6.03;94.28;99958.72;4994306;28;20457;-50
2023/10/18 01:49:01;;;;;;;0.30;0.20;;;;;;;5.95;95.25;99957.94;4994032;28;20935;-50
2023/10/18 01:51:28;;;;;;;0.30;0.20;;;;;;;5.84;95.15;99954.56;4994086;28;20464;-50
2023/10/18 01:54:02;;;;;;;0.30;0.20;;;;;;;5.89;95.55;99955.34;4993933;28;20463;-50
2023/10/18 01:56:29;;;;;;;0.30;0.20;;;;;;;5.84;94.40;99950.16;4994011;28;20445;-51
2023/10/18 01:58:55;;;;;;;0.30;0.20;;;;;;;5.75;93.83;99958.19;4993380;28;20449;-50
2023/10/18 02:01:22;;;;;;;0.30;0.20;;;;;;;5.60;95.72;99950.50;4994046;28;20512;-50
2023/10/18 02:03:52;;;;;;;0.30;0.20;;;;;;;5.69;94.60;99944.25;4993854;28;20708;-50
2023/10/18 02:06:20;;;;;;;0.30;0.20;;;;;;;5.51;95.35;99945.38;4994025;28;20456;-50
2023/10/18 02:08:48;;;;;;;0.30;0.20;;;;;;;5.48;94.73;99942.75;4981422;28;20997;-49
2023/10/18 02:11:15;;;;;;;0.30;0.20;;;;;;;5.46;95.07;99950.69;4993631;28;20453;-50
2023/10/18 02:13:41;;;;;;;0.30;0.20;;;;;;;5.46;94.54;99941.91;4993669;28;20544;-50
2023/10/18 02:16:19;;;;;;;0.30;0.20;;;;;;;5.32;94.70;99936.81;4993685;28;20458;-50
2023/10/18 02:18:49;;;;;;;0.30;0.20;;;;;;;5.32;94.87;99934.19;4993672;28;20449;-49
2023/10/18 02:21:16;;;;;;;0.30;0.20;;;;;;;5.53;93.86;99939.19;4993403;28;20450;-50
2023/10/18 02:23:46;;;;;;;0.30;0.20;;;;;;;5.47;94.50;99938.38;4993757;28;20450;-50
2023/10/18 02:26:31;;;;;;;0.30;0.20;;;;;;;5.21;94.86;99930.84;4993546;28;20485;-49
2023/10/18 02:29:12;;;;;;;0.30;0.20;;;;;;;5.26;93.93;99919.34;4993342;28;20453;-50
2023/10/18 02:31:42;;;;;;;2.20;1.33;;;;;;;5.18;94.65;99920.31;4976117;28;20922;-49
2023/10/18 02:34:09;;;;;;;0.30;0.20;;;;;;;5.34;94.73;99912.22;4993267;28;21190;-49
2023/10/18 02:36:55;;;;;;;0.30;0.20;;;;;;;5.30;93.95;99910.50;4993460;28;20457;-49
2023/10/18 02:39:23;;;;;;;0.30;0.20;;;;;;;5.20;95.22;99913.28;4993290;28;20489;-50
2023/10/18 02:41:51;;;;;;;0.30;0.20;;;;;;;5.26;95.35;99926.38;4993234;28;20477;-50
2023/10/18 02:44:23;;;;;;;0.30;0.20;;;;;;;5.47;95.27;99934.00;4992946;28;20550;-49
2023/10/18 02:46:54;;;;;;;0.30;0.20;;;;;;;5.45;96.05;99932.28;4993275;28;20480;-49
2023/10/18 02:49:27;;;;;;;0.30;0.20;;;;;;;5.60;95.28;99935.56;4993299;28;20508;-50
2023/10/18 02:51:56;;;;;;;0.30;0.20;;;;;;;5.57;95.46;99932.97;4989552;28;20561;-50
2023/10/18 02:54:24;;;;;;;0.30;0.20;;;;;;;5.53;94.72;99933.06;4992992;28;20457;-49
2023/10/18 02:56:51;;;;;;;0.30;0.20;;;;;;;5.39;95.51;99935.88;4993184;28;20477;-49
2023/10/18 02:59:24;;;;;;;0.30;0.20;;;;;;;5.38;95.04;99931.50;4993052;28;20577;-49
2023/10/18 03:01:54;;;;;;;0.30;0.20;;;;;;;5.30;94.64;99914.91;4992864;28;20993;-50
2023/10/18 03:04:22;;;;;;;0.97;0.97;;;;;;;5.44;93.65;99912.06;4993185;28;20458;-50
2023/10/18 03:06:52;;;;;;;0.30;0.20;;;;;;;5.31;94.50;99906.97;4992788;28;20453;-50
2023/10/18 03:09:27;;;;;;;0.30;0.20;;;;;;;5.27;94.34;99905.28;4992937;28;21018;-50
2023/10/18 03:11:55;;;;;;;0.30;0.20;;;;;;;5.11;94.46;99902.88;4993030;28;20465;-49
2023/10/18 03:14:23;;;;;;;0.30;0.20;;;;;;;5.10;94.89;99907.28;4992732;28;20449;-50
2023/10/18 03:16:49;;;;;;;0.30;0.20;;;;;;;5.14;94.82;99897.56;4992842;28;20507;-51
2023/10/18 03:19:18;;;;;;;0.30;0.20;;;;;;;4.86;94.72;99899.66;4992830;28;20816;-51
2023/10/18 03:21:50;;;;;;;4.97;3.50;;;;;;;4.81;94.64;99883.06;4982527;28;20864;-49
2023/10/18 03:24:21;;;;;;;0.30;0.20;;;;;;;4.86;93.88;99868.94;4995743;28;20556;-50
2023/10/18 03:26:47;;;;;;;0.30;0.20;;;;;;;4.66;94.58;99878.81;4999303;28;20454;-49
2023/10/18 03:29:17;;;;;;;0.30;0.20;;;;;;;4.73;94.63;99862.06;4998890;28;20905;-49
2023/10/18 03:31:44;;;;;;;0.30;0.20;;;;;;;4.55;94.80;99868.44;4999094;28;20477;-49
2023/10/18 03:34:17;;;;;;;0.30;0.20;;;;;;;4.74;94.93;99858.53;4998833;28;21016;-50
2023/10/18 03:36:49;;;;;;;0.30;0.20;;;;;;;4.56;94.45;99853.50;4999433;28;20445;-49
2023/10/18 03:39:16;;;;;;;0.30;0.20;;;;;;;4.62;95.14;99861.31;4999143;28;20544;-50
2023/10/18 03:41:43;;;;;;;0.30;0.20;;;;;;;4.66;94.19;99863.91;4999810;28;20481;-50
2023/10/18 03:44:13;;;;;;;0.30;0.20;;;;;;;4.63;93.87;99869.19;4998764;28;20453;-50
2023/10/18 03:46:48;;;;;;;0.30;0.20;;;;;;;4.68;95.17;99874.44;4999033;28;20449;-50
2023/10/18 03:49:33;;;;;;;0.30;0.20;;;;;;;4.71;94.87;99871.75;4986557;28;20500;-50
2023/10/18 03:52:16;;;;;;;0.30;0.20;;;;;;;4.55;95.26;99864.94;4995373;28;20477;-49
2023/10/18 03:55:04;;;;;;;0.30;0.20;;;;;;;4.50;95.21;99862.31;4999198;28;20477;-50
2023/10/18 03:57:41;;;;;;;0.30;0.20;;;;;;;4.51;94.86;99855.31;4987557;28;20452;-50
2023/10/18 04:03:07;;;;;;;0.30;0.20;;;;;;;4.49;95.54;99846.56;4999084;28;20547;-49
2023/10/18 04:05:45;;;;;;;0.30;0.20;;;;;;;4.56;95.27;99846.47;4987387;28;20445;-50
2023/10/18 04:08:14;;;;;;;0.30;0.20;;;;;;;4.49;95.88;99846.56;4998961;28;20453;-49
2023/10/18 04:10:41;;;;;;;0.30;0.20;;;;;;;4.70;95.43;99841.06;4998994;28;20460;-50
2023/10/18 04:13:14;;;;;;;0.30;0.20;;;;;;;4.51;95.56;99845.66;4998732;28;20552;-49
2023/10/18 04:15:45;;;;;;;0.30;0.10;;;;;;;4.56;95.00;99845.63;4998777;28;20541;-49
2023/10/18 04:18:13;;;;;;;0.30;0.20;;;;;;;4.63;96.41;99834.97;4999035;28;20449;-51
2023/10/18 04:20:47;;;;;;;0.30;0.20;;;;;;;4.59;95.72;99833.28;4998629;28;21021;-49
2023/10/18 04:23:14;;;;;;;0.30;0.20;;;;;;;4.62;96.53;99827.09;4998695;28;20475;-50
2023/10/18 04:25:42;;;;;;;0.30;0.20;;;;;;;4.60;96.12;99835.03;4998746;28;20456;-50
2023/10/18 04:28:11;;;;;;;0.30;0.20;;;;;;;4.75;96.01;99826.94;4998471;28;20953;-49
2023/10/18 04:30:38;;;;;;;0.30;0.20;;;;;;;4.73;96.32;99835.75;4998823;28;20441;-49
2023/10/18 04:33:49;;;;;;;0.30;0.20;;;;;;;4.76;96.84;99828.69;4998841;28;20918;-49
2023/10/18 04:35:58;;;;;;;0.30;0.20;;;;;;;4.81;96.63;99820.75;4991468;28;20469;-49
2023/10/18 04:38:36;;;;;;;0.30;0.20;;;;;;;4.78;96.57;99815.50;4995560;28;20955;-49
2023/10/18 04:41:07;;;;;;;0.30;0.20;;;;;;;4.76;97.21;99812.00;4995711;28;20493;-49
2023/10/18 04:43:37;;;;;;;0.30;0.20;;;;;;;4.81;96.61;99810.22;4995381;28;20920;-49
2023/10/18 04:51:26;;;;;;;0.30;0.20;;;;;;;4.88;97.00;99811.84;4995324;28;20445;-51
2023/10/18 04:54:08;;;;;;;0.30;0.10;;;;;;;4.77;97.00;99803.22;4995404;28;20480;-50
2023/10/18 04:56:38;;;;;;;0.30;0.20;;;;;;;4.92;97.64;99799.50;4995338;28;20453;-50
2023/10/18 04:59:26;;;;;;;0.30;0.20;;;;;;;4.87;97.06;99789.03;4983763;28;20532;-50
2023/10/18 05:04:29;;;;;;;0.30;0.20;;;;;;;4.88;97.72;99792.56;4995252;28;20557;-50
2023/10/18 05:06:58;;;;;;;0.30;0.20;;;;;;;4.93;98.26;99780.19;4995263;28;20817;-49
2023/10/18 05:09:30;;;;;;;0.30;0.20;;;;;;;5.28;98.34;99775.28;4978064;28;20540;-49
2023/10/18 05:14:50;;;;;;;0.30;0.20;;;;;;;5.39;96.81;99782.16;4995185;28;20456;-50
2023/10/18 05:17:23;;;;;;;0.30;0.20;;;;;;;5.55;96.84;99784.50;4995372;28;20524;-50
2023/10/18 05:19:50;;;;;;;0.30;0.10;;;;;;;5.46;97.29;99776.75;4992788;28;20488;-49
2023/10/18 05:22:20;;;;;;;0.30;0.20;;;;;;;5.46;96.88;99779.38;4986800;28;20520;-50
2023/10/18 05:24:55;;;;;;;0.30;0.20;;;;;;;5.74;97.36;99776.28;4995228;28;20826;-50
2023/10/18 05:27:27;;;;;;;0.30;0.20;;;;;;;5.90;96.78;99773.41;4995028;28;20532;-50
2023/10/18 05:30:06;;;;;;;0.30;0.20;;;;;;;5.93;96.70;99772.47;4994699;28;20945;-50
2023/10/18 05:37:58;;;;;;;0.30;0.10;;;;;;;6.07;96.51;99753.75;4994590;28;20528;-50
2023/10/18 05:43:12;;;;;;;0.30;0.17;;;;;;;6.07;96.07;99770.44;4994349;28;20850;-49
2023/10/18 05:45:42;;;;;;;0.30;0.20;;;;;;;6.09;95.74;99766.00;4994637;28;20449;-50
2023/10/18 05:48:12;;;;;;;0.30;0.20;;;;;;;6.17;95.55;99765.88;4994058;28;20512;-50
2023/10/18 05:50:39;;;;;;;0.30;0.20;;;;;;;6.10;95.96;99761.59;4994274;28;20508;-50
2023/10/18 05:53:12;;;;;;;0.30;0.20;;;;;;;5.99;96.95;99759.16;4994435;28;20557;-49
2023/10/18 05:55:38;;;;;;;0.30;0.20;;;;;;;6.04;96.91;99754.69;4994118;28;20452;-50
2023/10/18 05:58:05;;;;;;;0.30;0.20;;;;;;;6.09;96.94;99757.22;4994232;28;20541;-49
2023/10/18 06:00:33;;;;;;;2.50;2.23;;;;;;;5.93;97.30;99764.56;4993509;28;20611;-50
2023/10/18 06:02:59;;;;;;;0.30;0.10;;;;;;;6.07;96.71;99766.94;4993885;28;20473;-50
2023/10/18 06:05:33;;;;;;;0.30;0.20;;;;;;;6.19;97.20;99762.31;4994064;28;20465;-49
2023/10/18 06:08:01;;;;;;;0.30;0.20;;;;;;;6.15;96.96;99757.97;4976596;28;20627;-50
2023/10/18 06:10:27;;;;;;;0.30;0.20;;;;;;;6.09;97.06;99744.03;4993916;28;20468;-49
2023/10/18 06:12:57;;;;;;;0.30;0.20;;;;;;;6.13;96.50;99741.28;4994057;28;20470;-50
2023/10/18 06:15:38;;;;;;;0.30;0.20;;;;;;;6.12;96.56;99744.84;4994088;28;20452;-50
2023/10/18 06:18:09;;;;;;;0.30;0.20;;;;;;;6.18;96.74;99744.75;4993789;28;20496;-49
2023/10/18 06:20:41;;;;;;;0.30;0.20;;;;;;;6.12;96.38;99738.69;4985571;28;20498;-49
2023/10/18 06:25:57;;;;;;;0.30;0.20;;;;;;;6.28;95.60;99733.97;4993472;28;20536;-49
2023/10/18 06:28:25;;;;;;;0.30;0.20;;;;;;;6.40;96.15;99724.03;4993617;28;20540;-49
2023/10/18 06:30:53;;;;;;;0.30;0.20;;;;;;;6.32;95.57;99731.25;4994116;28;20445;-50
2023/10/18 06:33:21;;;;;;;0.30;0.17;;;;;;;6.41;95.82;99730.19;4993296;28;20469;-50
2023/10/18 06:35:53;;;;;;;0.30;0.20;;;;;;;6.49;95.15;99729.13;4993402;28;20449;-50
2023/10/18 06:38:24;;;;;;;0.30;0.20;;;;;;;6.50;95.88;99730.00;4993467;28;20536;-50
2023/10/18 06:40:53;;;;;;;0.30;0.20;;;;;;;6.58;95.07;99728.09;4993213;28;20515;-51
2023/10/18 06:43:32;;;;;;;0.30;0.20;;;;;;;6.46;95.22;99729.22;4992982;28;20481;-50
2023/10/18 06:45:58;;;;;;;0.30;0.20;;;;;;;6.68;94.51;99740.16;4993244;28;20457;-50
2023/10/18 06:48:28;;;;;;;0.30;0.20;;;;;;;6.48;94.25;99745.00;4993517;28;20453;-51
2023/10/18 06:50:55;;;;;;;0.30;0.20;;;;;;;6.56;95.54;99740.41;4993092;28;20813;-50
2023/10/18 06:53:22;;;;;;;0.30;0.20;;;;;;;6.57;94.38;99736.88;4993272;28;20473;-50
2023/10/18 06:56:22;;;;;;;0.30;0.20;;;;;;;6.57;94.71;99744.78;4992943;28;20468;-51
2023/10/18 06:58:41;;;;;;;0.30;0.20;;;;;;;6.61;94.69;99749.13;4989426;28;20995;-50
2023/10/18 07:01:19;;;;;;;0.30;0.20;;;;;;;6.61;94.45;99735.06;4993127;28;20584;-50
2023/10/18 07:03:47;;;;;;;0.30;0.20;;;;;;;6.73;95.28;99714.53;4993098;28;20460;-50
2023/10/18 07:06:23;;;;;;;0.30;0.20;;;;;;;6.69;94.58;99719.91;4993036;28;20484;-52
2023/10/18 07:08:51;;;;;;;0.30;0.20;;;;;;;6.79;94.33;99716.16;4980866;28;20441;-51
2023/10/18 07:11:18;;;;;;;0.30;0.20;;;;;;;6.80;94.63;99709.97;4993002;28;20541;-50
2023/10/18 07:13:53;;;;;;;0.30;0.20;;;;;;;6.91;94.55;99715.03;4993140;28;20449;-50
2023/10/18 07:21:45;;;;;;;0.30;0.20;;;;;;;6.97;93.80;99712.22;4992713;28;20571;-50
2023/10/18 07:24:11;;;;;;;0.30;0.20;;;;;;;7.07;93.57;99717.25;4993033;28;20477;-50
2023/10/18 07:26:39;;;;;;;0.30;0.20;;;;;;;7.09;93.69;99720.72;4992769;28;20568;-51
2023/10/18 07:29:08;;;;;;;0.30;0.20;;;;;;;7.20;93.09;99715.19;4992668;28;20476;-51
2023/10/18 07:31:39;;;;;;;0.30;0.20;;;;;;;7.29;92.52;99712.34;4992757;28;20480;-50
2023/10/18 07:34:09;;;;;;;0.30;0.20;;;;;;;7.51;92.04;99711.78;4992828;28;20523;-51
2023/10/18 07:36:39;;;;;;;0.30;0.20;;;;;;;7.53;92.42;99720.53;4992929;28;20477;-48
2023/10/18 07:39:06;;;;;;;2.47;1.27;;;;;;;7.57;91.37;99712.50;4992665;28;20452;-49
2023/10/18 07:41:35;;;;;;;0.30;0.20;;;;;;;7.57;92.19;99704.59;4992625;28;20576;-49
2023/10/18 07:44:05;;;;;;;0.30;0.20;;;;;;;7.70;91.40;99699.84;4992271;28;20467;-49
2023/10/18 07:46:39;;;;;;;0.30;0.20;;;;;;;7.82;90.89;99691.59;4992922;28;20457;-49
2023/10/18 07:49:14;;;;;;;0.30;0.20;;;;;;;7.94;90.32;99685.06;4992642;28;20510;-49
2023/10/18 07:51:43;;;;;;;0.30;0.20;;;;;;;7.80;90.77;99684.56;4992531;28;20469;-49
2023/10/18 07:54:16;;;;;;;0.30;0.20;;;;;;;7.85;91.09;99687.97;4992640;28;20453;-49
2023/10/18 07:56:49;;;;;;;0.30;0.20;;;;;;;7.91;90.44;99693.09;4992569;28;20536;-49
2023/10/18 07:59:31;;;;;;;0.30;0.20;;;;;;;7.82;90.65;99694.22;4991847;28;20452;-49
2023/10/18 08:02:19;;;;;;;0.30;0.20;;;;;;;7.91;90.60;99685.16;4992332;28;20580;-49
2023/10/18 08:04:50;;;;;;;0.30;0.20;;;;;;;7.96;90.49;99688.56;4992392;28;20472;-49
2023/10/18 08:07:20;;;;;;;0.30;0.20;;;;;;;8.15;90.04;99688.91;4992511;28;20464;-50
2023/10/18 08:09:48;;;;;;;0.30;0.20;;;;;;;8.11;89.58;99677.53;4992677;28;20943;-49
2023/10/18 08:14:54;;;;;;;0.30;0.20;;;;;;;8.46;88.49;99665.94;4996146;28;20453;-49
2023/10/18 08:17:30;;;;;;;0.83;0.83;;;;;;;8.38;88.19;99670.59;4996019;28;20449;-50
2023/10/18 08:20:55;;;;;;;0.30;0.20;;;;;;;8.57;88.53;99660.31;4993128;28;20445;-49
2023/10/18 08:22:45;;;;;;;0.30;0.20;;;;;;;8.67;87.54;99648.53;4977612;28;21032;-50
2023/10/18 08:25:22;;;;;;;0.40;0.30;;;;;;;8.90;87.22;99651.28;4996009;28;21030;-51
2023/10/18 08:27:52;;;;;;;0.30;0.20;;;;;;;8.78;86.89;99640.25;4995723;28;20473;-51
2023/10/18 08:33:12;;;;;;;0.30;0.20;;;;;;;9.06;87.15;99632.28;4958785;28;20465;-50
2023/10/18 08:35:38;;;;;;;0.30;0.20;;;;;;;9.28;86.38;99621.81;4995585;28;20943;-50
2023/10/18 08:38:05;;;;;;;0.30;0.20;;;;;;;9.25;85.89;99617.47;4995709;28;20450;-50
2023/10/18 08:43:29;;;;;;;0.30;0.20;;;;;;;9.34;85.72;99626.91;4995365;28;20509;-50
2023/10/18 08:45:55;;;;;;;0.30;0.20;;;;;;;9.25;85.48;99635.16;4995517;28;20542;-50
2023/10/18 08:48:38;;;;;;;0.30;0.20;;;;;;;9.25;85.59;99624.56;4995584;28;20458;-50
2023/10/18 08:51:06;;;;;;;0.30;0.20;;;;;;;9.25;85.22;99625.44;4991191;28;20496;-50
2023/10/18 08:53:35;;;;;;;0.30;0.20;;;;;;;9.25;84.93;99617.47;4995299;28;20552;-50
2023/10/18 08:56:06;;;;;;;0.30;0.20;;;;;;;9.41;84.96;99610.72;4995392;28;20468;-50
2023/10/18 08:58:35;;;;;;;0.30;0.20;;;;;;;9.61;85.14;99611.81;4995146;28;20971;-50
2023/10/18 09:03:29;;;;;;;0.30;0.20;;;;;;;9.68;84.06;99605.34;4995209;28;20587;-50
2023/10/18 09:06:07;;;;;;;0.30;0.20;;;;;;;9.70;83.70;99593.75;4995190;28;20453;-50
2023/10/18 09:09:00;;;;;;;0.30;0.20;;;;;;;9.59;83.47;99592.41;4995184;28;20540;-50
2023/10/18 09:11:31;;;;;;;0.30;0.20;;;;;;;9.58;83.76;99588.03;4994865;28;20456;-50
2023/10/18 09:14:07;;;;;;;0.30;0.20;;;;;;;9.46;83.99;99584.03;4995219;28;20461;-50
2023/10/18 09:16:36;;;;;;;0.30;0.20;;;;;;;9.75;83.78;99583.88;4994691;28;20469;-50
2023/10/18 09:19:02;;;;;;;0.30;0.20;;;;;;;9.57;83.96;99592.47;4994574;28;20449;-50
2023/10/18 09:21:36;;;;;;;0.30;0.20;;;;;;;9.55;84.12;99578.41;4983301;28;20500;-50
2023/10/18 09:24:03;;;;;;;0.30;0.20;;;;;;;9.65;83.33;99577.16;4994748;28;20504;-50
2023/10/18 09:26:41;;;;;;;0.30;0.20;;;;;;;9.73;83.28;99585.72;4994953;28;20454;-50
2023/10/18 09:29:09;;;;;;;0.30;0.20;;;;;;;9.71;83.23;99578.69;4994875;28;20528;-50
2023/10/18 09:31:49;;;;;;;0.30;0.20;;;;;;;9.70;83.36;99583.16;4994619;28;20894;-50
2023/10/18 09:34:16;;;;;;;0.30;0.20;;;;;;;9.75;83.33;99578.56;4994633;28;20452;-51
2023/10/18 09:36:56;;;;;;;0.30;0.20;;;;;;;10.00;83.15;99581.13;4994536;28;20456;-50
2023/10/18 09:39:37;;;;;;;0.60;0.60;;;;;;;10.06;81.69;99580.91;4994287;28;20951;-50
2023/10/18 09:42:12;;;;;;;0.30;0.20;;;;;;;10.07;81.54;99572.03;4994611;28;20500;-52
2023/10/18 09:44:42;;;;;;;0.30;0.20;;;;;;;10.14;81.81;99559.38;4994601;28;20496;-52
2023/10/18 09:47:09;;;;;;;0.30;0.20;;;;;;;10.47;81.45;99561.69;4994665;28;20536;-51
2023/10/18 09:49:39;;;;;;;0.30;0.20;;;;;;;10.61;80.03;99560.19;4994175;28;20457;-51
2023/10/18 09:52:08;;;;;;;0.30;0.20;;;;;;;10.48;80.16;99551.00;4994310;28;21033;-51
2023/10/18 09:54:36;;;;;;;0.30;0.20;;;;;;;10.54;80.68;99544.56;4994503;28;20459;-49
2023/10/18 09:57:06;;;;;;;0.30;0.20;;;;;;;10.89;80.31;99532.47;4994019;28;20536;-49
2023/10/18 09:59:37;;;;;;;0.30;0.20;;;;;;;11.14;79.32;99532.31;4993090;28;20454;-51
2023/10/18 10:02:07;;;;;;;0.30;0.20;;;;;;;11.12;78.47;99528.84;4993737;28;20864;-51
2023/10/18 10:04:35;;;;;;;0.30;0.20;;;;;;;11.00;78.85;99521.41;4993900;28;20450;-51
2023/10/18 10:09:49;;;;;;;0.30;0.20;;;;;;;11.02;78.78;99517.72;4993616;28;20524;-49
2023/10/18 10:12:17;;;;;;;0.30;0.20;;;;;;;10.93;78.28;99528.75;4994044;28;20465;-49
2023/10/18 10:14:44;;;;;;;0.30;0.20;;;;;;;10.99;78.66;99512.56;4993893;28;20711;-49
2023/10/18 10:17:18;;;;;;;0.30;0.20;;;;;;;11.19;78.01;99511.69;4993775;28;20512;-50
2023/10/18 10:19:48;;;;;;;0.30;0.20;;;;;;;11.53;77.25;99509.28;4992582;28;20460;-49
2023/10/18 10:22:18;;;;;;;0.30;0.20;;;;;;;11.35;76.89;99512.72;4984972;28;20493;-49
2023/10/18 10:24:50;;;;;;;0.30;0.20;;;;;;;11.52;76.34;99496.91;4993372;28;20460;-50
2023/10/18 10:27:41;;;;;;;0.30;0.20;;;;;;;11.87;76.12;99489.09;4993823;28;20496;-49
2023/10/18 10:32:55;;;;;;;0.30;0.20;;;;;;;11.76;75.56;99470.94;4993072;28;20560;-49
2023/10/18 10:35:26;;;;;;;0.30;0.20;;;;;;;12.16;74.59;99463.75;4993688;28;20820;-49
2023/10/18 10:38:09;;;;;;;0.30;0.20;;;;;;;12.01;74.20;99454.69;4993431;28;20481;-49
2023/10/18 10:40:45;;;;;;;0.30;0.20;;;;;;;11.76;74.85;99467.41;4993485;28;20457;-49
2023/10/18 10:43:14;;;;;;;0.30;0.20;;;;;;;12.02;74.66;99472.41;4993060;28;20496;-50
2023/10/18 10:48:18;;;;;;;0.30;0.20;;;;;;;12.28;73.03;99452.50;4993578;28;20462;-49
2023/10/18 10:50:52;;;;;;;0.30;0.20;;;;;;;12.26;73.71;99458.84;4993190;28;20449;-49
2023/10/18 10:53:35;;;;;;;1.13;1.13;;;;;;;12.39;72.75;99441.31;4993273;28;20472;-49
2023/10/18 10:56:23;;;;;;;0.30;0.20;;;;;;;12.62;73.04;99440.16;4982461;28;20450;-49
2023/10/18 10:59:03;;;;;;;0.30;0.20;;;;;;;12.52;72.78;99434.44;4966694;28;20464;-49
2023/10/18 11:07:21;;;;;;;0.30;0.20;;;;;;;12.92;71.46;99422.59;4981800;28;20450;-49
2023/10/18 11:09:50;;;;;;;0.30;0.20;;;;;;;12.89;71.43;99424.56;4992709;28;20950;-50
2023/10/18 11:12:17;;;;;;;0.30;0.20;;;;;;;12.93;71.93;99415.44;4992762;28;20874;-49
2023/10/18 11:14:50;;;;;;;0.30;0.20;;;;;;;12.86;71.48;99408.69;4993096;28;20536;-49
2023/10/18 11:19:53;;;;;;;0.30;0.20;;;;;;;12.88;71.34;99389.00;4991523;28;20867;-49
2023/10/18 11:22:23;;;;;;;0.30;0.20;;;;;;;13.03;71.11;99382.00;4984997;28;20559;-49
2023/10/18 11:24:52;;;;;;;0.40;0.20;;;;;;;13.08;70.95;99379.94;4992756;28;20789;-49
2023/10/18 11:27:26;;;;;;;0.40;0.20;;;;;;;13.30;70.66;99369.03;4992719;28;20544;-50
2023/10/18 11:30:00;;;;;;;0.30;0.20;;;;;;;13.16;71.03;99364.41;4980411;28;20466;-49
2023/10/18 11:32:29;;;;;;;0.30;0.20;;;;;;;12.93;71.69;99365.63;4975428;28;20472;-50
2023/10/18 11:35:09;;;;;;;0.30;0.20;;;;;;;13.12;71.50;99356.63;4975510;28;20826;-49
2023/10/18 11:37:43;;;;;;;0.30;0.20;;;;;;;13.10;71.76;99346.03;4992671;28;20445;-50
2023/10/18 11:40:16;;;;;;;0.30;0.20;;;;;;;13.12;71.16;99336.13;4992966;28;20476;-50
2023/10/18 11:43:05;;;;;;;0.30;0.20;;;;;;;13.11;71.08;99331.75;4992320;28;20513;-50
2023/10/18 11:45:32;;;;;;;0.30;0.20;;;;;;;13.14;70.78;99320.03;4994177;28;20453;-50
2023/10/18 11:48:06;;;;;;;0.30;0.20;;;;;;;13.09;70.78;99311.44;4996807;28;20516;-50
2023/10/18 11:50:42;;;;;;;0.30;0.20;;;;;;;13.16;70.66;99318.19;4979260;28;20450;-50
2023/10/18 11:53:13;;;;;;;0.30;0.20;;;;;;;13.23;70.34;99315.09;4996520;28;20519;-49
2023/10/18 11:55:58;;;;;;;0.30;0.20;;;;;;;13.16;70.61;99312.84;4996376;28;20457;-50
2023/10/18 11:58:32;;;;;;;0.30;0.20;;;;;;;13.25;70.60;99305.19;4995660;28;20868;-50
2023/10/18 12:01:00;;;;;;;0.30;0.20;;;;;;;13.39;70.16;99311.59;4996579;28;20485;-50
2023/10/18 12:03:28;;;;;;;0.30;0.20;;;;;;;13.37;70.14;99302.81;4996066;28;20493;-50
2023/10/18 12:05:56;;;;;;;0.30;0.20;;;;;;;13.28;69.95;99307.69;4996138;28;20453;-50
2023/10/18 12:08:23;;;;;;;0.40;0.20;;;;;;;13.37;69.82;99292.13;4996232;28;20547;-50
2023/10/18 12:10:50;;;;;;;0.40;0.30;;;;;;;13.32;69.48;99277.25;4996101;28;20457;-50
2023/10/18 12:13:20;;;;;;;0.30;0.20;;;;;;;13.29;69.35;99277.41;4996173;28;20461;-50
2023/10/18 12:15:47;;;;;;;0.30;0.20;;;;;;;13.37;68.73;99270.78;4996151;28;20449;-50
2023/10/18 12:18:14;;;;;;;0.30;0.20;;;;;;;13.37;68.89;99260.09;4996053;28;20458;-50
2023/10/18 12:20:44;;;;;;;0.30;0.20;;;;;;;13.43;69.06;99251.72;4987230;28;20454;-50
2023/10/18 12:23:13;;;;;;;0.30;0.20;;;;;;;13.24;68.65;99247.44;4994993;28;20983;-49
2023/10/18 12:25:43;;;;;;;0.30;0.20;;;;;;;13.43;68.34;99236.59;4996072;28;20485;-50
2023/10/18 12:28:12;;;;;;;0.30;0.20;;;;;;;13.42;67.61;99225.97;4996023;28;20499;-50
2023/10/18 12:30:41;;;;;;;0.30;0.20;;;;;;;13.45;67.93;99213.34;4995581;28;20456;-50
2023/10/18 12:33:14;;;;;;;0.30;0.20;;;;;;;13.52;67.69;99197.81;4995886;28;20479;-50
2023/10/18 12:35:41;;;;;;;0.30;0.20;;;;;;;13.52;67.74;99206.69;4996124;28;20449;-50
2023/10/18 12:38:13;;;;;;;0.40;0.20;;;;;;;13.57;66.65;99206.44;4995853;28;20486;-50
2023/10/18 12:40:52;;;;;;;0.30;0.20;;;;;;;13.62;66.33;99207.88;4995609;28;20452;-50
2023/10/18 12:43:20;;;;;;;0.30;0.20;;;;;;;13.74;66.36;99218.78;4995664;28;20517;-50
2023/10/18 12:45:50;;;;;;;0.40;0.20;;;;;;;13.99;65.60;99208.38;4995786;28;20445;-50
2023/10/18 12:48:23;;;;;;;0.30;0.20;;;;;;;13.76;65.94;99199.06;4988996;28;20457;-49
2023/10/18 12:50:54;;;;;;;0.30;0.20;;;;;;;13.76;66.47;99190.19;4991615;28;20823;-49
2023/10/18 12:55:58;;;;;;;0.30;0.20;;;;;;;13.55;66.89;99184.28;4995208;28;20927;-48
2023/10/18 12:58:29;;;;;;;0.40;0.20;;;;;;;13.79;66.77;99185.50;4994665;28;20474;-48